createdAt,value
2019-01-08T00:01:08.407Z,10.27
2019-01-08T00:03:34.940Z,10.97
2019-01-08T00:06:01.472Z,11.07
2019-01-08T00:08:27.971Z,9.53
2019-01-08T00:10:54.389Z,10.07
2019-01-08T00:13:20.888Z,10.37
2019-01-08T00:15:47.321Z,9.73
2019-01-08T00:18:14.089Z,10.10
2019-01-08T00:20:40.632Z,9.53
2019-01-08T00:23:07.035Z,10.10
2019-01-08T00:25:33.746Z,9.97
2019-01-08T00:28:00.372Z,8.30
2019-01-08T00:30:26.867Z,8.93
2019-01-08T00:32:53.279Z,8.80
2019-01-08T00:35:20.061Z,9.03
2019-01-08T00:37:47.561Z,8.57
2019-01-08T00:40:13.973Z,8.73
2019-01-08T00:42:40.651Z,8.33
2019-01-08T00:45:07.360Z,8.50
2019-01-08T00:47:34.050Z,8.17
2019-01-08T00:50:00.738Z,8.30
2019-01-08T00:52:27.315Z,8.47
2019-01-08T00:54:54.003Z,7.83
2019-01-08T00:57:21.520Z,8.00
2019-01-08T00:59:48.033Z,7.97
2019-01-08T01:02:14.710Z,7.47
2019-01-08T01:04:41.127Z,7.47
2019-01-08T01:07:08.604Z,7.03
2019-01-08T01:09:35.039Z,7.83
2019-01-08T01:12:06.010Z,6.87
2019-01-08T01:14:32.619Z,7.17
2019-01-08T01:16:59.047Z,6.57
2019-01-08T01:19:25.627Z,7.20
2019-01-08T01:21:52.136Z,7.87
2019-01-08T01:24:18.580Z,6.80
2019-01-08T01:26:45.263Z,7.20
2019-01-08T01:29:11.669Z,7.37
2019-01-08T01:31:38.183Z,6.60
2019-01-08T01:34:04.699Z,6.67
2019-01-08T01:36:31.203Z,6.83
2019-01-08T01:38:57.828Z,6.83
2019-01-08T01:41:24.407Z,6.90
2019-01-08T01:43:50.937Z,6.80
2019-01-08T01:46:17.467Z,6.70
2019-01-08T01:48:43.957Z,6.90
2019-01-08T01:51:10.467Z,6.00
2019-01-08T01:53:36.879Z,5.97
2019-01-08T01:56:03.302Z,6.10
2019-01-08T01:58:29.798Z,6.03
2019-01-08T02:00:56.372Z,5.73
2019-01-08T02:03:22.776Z,6.30
2019-01-08T02:05:49.451Z,5.47
2019-01-08T02:08:16.972Z,5.73
2019-01-08T02:10:43.899Z,5.83
2019-01-08T02:13:10.394Z,5.70
2019-01-08T02:15:37.274Z,5.57
2019-01-08T02:18:04.775Z,4.90
2019-01-08T02:20:31.279Z,5.30
2019-01-08T02:22:57.944Z,5.50
2019-01-08T02:25:24.340Z,5.63
2019-01-08T02:27:50.779Z,5.03
2019-01-08T02:30:17.294Z,5.80
2019-01-08T02:32:44.037Z,5.47
2019-01-08T02:35:10.419Z,5.00
2019-01-08T02:37:37.174Z,4.60
2019-01-08T02:40:04.402Z,5.37
2019-01-08T02:42:30.837Z,5.67
2019-01-08T02:44:57.359Z,5.13
2019-01-08T02:47:24.010Z,4.80
2019-01-08T02:49:50.537Z,5.47
2019-01-08T02:52:17.138Z,5.33
2019-01-08T02:54:43.949Z,4.90
2019-01-08T02:57:10.827Z,5.07
2019-01-08T02:59:37.356Z,5.57
2019-01-08T03:02:04.553Z,4.90
2019-01-08T03:04:31.351Z,4.87
2019-01-08T03:06:58.420Z,5.07
2019-01-08T03:09:24.940Z,4.87
2019-01-08T03:11:51.481Z,4.77
2019-01-08T03:14:18.034Z,4.93
2019-01-08T03:16:44.931Z,4.87
2019-01-08T03:19:11.860Z,4.80
2019-01-08T03:21:38.519Z,5.27
2019-01-08T03:24:05.202Z,4.67
2019-01-08T03:26:32.025Z,4.87
2019-01-08T03:28:58.688Z,4.80
2019-01-08T03:31:25.252Z,4.77
2019-01-08T03:33:52.020Z,4.90
2019-01-08T03:36:18.739Z,5.33
2019-01-08T03:38:45.356Z,4.47
2019-01-08T03:41:12.143Z,4.47
2019-01-08T03:43:38.653Z,4.60
2019-01-08T03:46:05.332Z,4.70
2019-01-08T03:48:32.120Z,4.57
2019-01-08T03:50:58.800Z,4.17
2019-01-08T03:53:25.236Z,4.40
2019-01-08T03:55:51.651Z,4.10
2019-01-08T03:58:18.294Z,4.13
2019-01-08T04:00:44.796Z,3.93
2019-01-08T04:03:11.366Z,5.13
2019-01-08T04:05:38.263Z,3.73
2019-01-08T04:08:04.739Z,3.77
2019-01-08T04:10:31.320Z,4.17
2019-01-08T04:12:57.856Z,4.00
2019-01-08T04:15:24.372Z,3.70
2019-01-08T04:17:50.825Z,4.00
2019-01-08T04:20:17.360Z,4.20
2019-01-08T04:22:44.101Z,3.43
2019-01-08T04:25:10.597Z,4.03
2019-01-08T04:27:37.033Z,3.70
2019-01-08T04:30:04.843Z,3.97
2019-01-08T04:32:31.385Z,3.37
2019-01-08T04:34:57.922Z,3.50
2019-01-08T04:37:24.360Z,3.20
2019-01-08T04:39:51.795Z,3.60
2019-01-08T04:42:18.409Z,3.53
2019-01-08T04:44:44.844Z,3.17
2019-01-08T04:47:12.620Z,3.20
2019-01-08T04:49:40.156Z,2.87
2019-01-08T04:52:07.580Z,3.13
2019-01-08T04:54:34.062Z,3.40
2019-01-08T04:57:01.601Z,2.83
2019-01-08T04:59:29.119Z,3.23
2019-01-08T05:01:55.641Z,3.00
2019-01-08T05:04:22.178Z,2.97
2019-01-08T05:06:48.737Z,2.80
2019-01-08T05:09:15.303Z,2.57
2019-01-08T05:11:41.935Z,2.50
2019-01-08T05:14:08.507Z,2.50
2019-01-08T05:16:35.261Z,2.53
2019-01-08T05:19:01.791Z,2.50
2019-01-08T05:21:28.211Z,1.93
2019-01-08T05:23:56.017Z,2.00
2019-01-08T05:26:22.793Z,2.17
2019-01-08T05:28:49.345Z,1.97
2019-01-08T05:31:16.085Z,2.10
2019-01-08T05:33:42.905Z,2.00
2019-01-08T05:36:09.780Z,2.03
2019-01-08T05:38:36.323Z,1.80
2019-01-08T05:41:02.846Z,2.17
2019-01-08T05:43:29.527Z,2.10
2019-01-08T05:45:56.025Z,2.17
2019-01-08T05:48:22.480Z,1.73
2019-01-08T05:50:49.292Z,1.50
2019-01-08T05:53:16.085Z,2.00
2019-01-08T05:55:42.625Z,1.50
2019-01-08T05:58:09.263Z,1.83
2019-01-08T06:00:35.796Z,1.80
2019-01-08T06:03:03.895Z,1.57
2019-01-08T06:05:30.560Z,1.63
2019-01-08T06:07:58.271Z,1.90
2019-01-08T06:10:25.128Z,2.03
2019-01-08T06:12:51.744Z,1.80
2019-01-08T06:15:18.543Z,1.80
2019-01-08T06:17:45.153Z,1.90
2019-01-08T06:20:11.598Z,2.20
2019-01-08T06:22:38.340Z,2.43
2019-01-08T06:25:04.863Z,1.97
2019-01-08T06:27:31.633Z,2.70
2019-01-08T06:29:58.131Z,2.50
2019-01-08T06:32:26.657Z,3.10
2019-01-08T06:34:53.912Z,2.37
2019-01-08T06:37:20.715Z,2.57
2019-01-08T06:39:47.240Z,3.10
2019-01-08T06:42:13.685Z,2.40
2019-01-08T06:44:40.473Z,2.37
2019-01-08T06:47:07.007Z,1.70
2019-01-08T06:49:33.797Z,2.30
2019-01-08T06:52:00.304Z,2.87
2019-01-08T06:54:26.848Z,2.67
2019-01-08T06:56:53.616Z,2.00
2019-01-08T06:59:20.042Z,2.00
2019-01-08T07:01:46.547Z,1.70
2019-01-08T07:04:13.347Z,1.80
2019-01-08T07:06:40.152Z,1.80
2019-01-08T07:09:06.660Z,1.43
2019-01-08T07:11:33.329Z,1.70
2019-01-08T07:14:00.009Z,1.80
2019-01-08T07:16:26.530Z,2.07
2019-01-08T07:18:53.152Z,2.40
2019-01-08T07:21:19.727Z,2.10
2019-01-08T07:23:46.331Z,2.30
2019-01-08T07:26:12.760Z,2.53
2019-01-08T07:28:39.256Z,2.60
2019-01-08T07:31:05.795Z,2.30
2019-01-08T07:33:32.353Z,2.57
2019-01-08T07:35:58.821Z,2.57
2019-01-08T07:38:25.360Z,2.60
2019-01-08T07:40:51.825Z,2.80
2019-01-08T07:43:18.320Z,2.87
2019-01-08T07:45:44.873Z,2.70
2019-01-08T07:48:11.736Z,3.40
2019-01-08T07:50:38.576Z,2.93
2019-01-08T07:53:05.357Z,3.57
2019-01-08T07:55:32.124Z,2.60
2019-01-08T07:57:58.856Z,2.13
2019-01-08T08:00:25.995Z,2.67
2019-01-08T08:02:53.058Z,3.50
2019-01-08T08:05:19.572Z,2.20
2019-01-08T08:07:46.381Z,2.60
2019-01-08T08:10:12.994Z,2.27
2019-01-08T08:12:39.445Z,2.53
2019-01-08T08:15:06.193Z,2.67
2019-01-08T08:17:32.766Z,2.80
2019-01-08T08:20:00.581Z,2.50
2019-01-08T08:22:27.115Z,2.40
2019-01-08T08:24:53.532Z,2.70
2019-01-08T08:27:20.051Z,2.83
2019-01-08T08:29:46.586Z,2.93
2019-01-08T08:32:13.187Z,2.73
2019-01-08T08:34:39.713Z,2.83
2019-01-08T08:37:06.252Z,3.20
2019-01-08T08:39:32.979Z,2.93
2019-01-08T08:41:59.423Z,2.30
2019-01-08T08:44:25.914Z,2.37
2019-01-08T08:46:52.445Z,2.00
2019-01-08T08:49:19.109Z,2.00
2019-01-08T08:51:45.621Z,2.70
2019-01-08T08:54:12.160Z,2.83
2019-01-08T08:56:38.871Z,2.90
2019-01-08T08:59:06.413Z,2.80
2019-01-08T09:01:32.960Z,2.80
2019-01-08T09:03:59.410Z,3.30
2019-01-08T09:06:25.972Z,3.60
2019-01-08T09:08:52.800Z,3.07
2019-01-08T09:11:19.274Z,3.30
2019-01-08T09:13:45.784Z,3.07
2019-01-08T09:16:12.365Z,2.53
2019-01-08T09:18:38.902Z,3.30
2019-01-08T09:21:05.449Z,4.10
2019-01-08T09:23:32.231Z,3.53
2019-01-08T09:25:58.804Z,4.50
2019-01-08T09:28:25.490Z,4.03
2019-01-08T09:30:51.954Z,4.13
2019-01-08T09:33:18.632Z,4.57
2019-01-08T09:35:47.140Z,5.00
2019-01-08T09:38:13.667Z,4.57
2019-01-08T09:40:40.179Z,4.30
2019-01-08T09:43:06.709Z,4.07
2019-01-08T09:45:33.512Z,3.70
2019-01-08T09:48:00.205Z,4.20
2019-01-08T09:50:26.700Z,3.80
2019-01-08T09:52:53.308Z,3.70
2019-01-08T09:55:20.031Z,3.60
2019-01-08T09:57:47.547Z,3.63
2019-01-08T10:00:14.004Z,3.60
2019-01-08T10:02:40.580Z,3.20
2019-01-08T10:05:07.185Z,3.30
2019-01-08T10:07:33.700Z,3.30
2019-01-08T10:10:00.245Z,2.83
2019-01-08T10:12:26.748Z,2.70
2019-01-08T10:14:53.620Z,2.73
2019-01-08T10:17:20.473Z,2.53
2019-01-08T10:19:47.019Z,2.20
2019-01-08T10:22:14.672Z,2.40
2019-01-08T10:24:41.117Z,2.30
2019-01-08T10:27:07.908Z,2.30
2019-01-08T10:29:34.359Z,2.20
2019-01-08T10:32:02.198Z,2.17
2019-01-08T10:34:28.772Z,2.40
2019-01-08T10:36:55.275Z,2.30
2019-01-08T10:39:21.825Z,2.03
2019-01-08T10:41:48.617Z,2.10
2019-01-08T10:44:15.132Z,2.30
2019-01-08T10:46:41.548Z,2.30
2019-01-08T10:49:08.094Z,2.30
2019-01-08T10:51:34.588Z,1.90
2019-01-08T10:54:01.090Z,2.10
2019-01-08T10:56:27.940Z,2.20
2019-01-08T10:58:54.737Z,1.97
2019-01-08T11:01:21.363Z,2.10
2019-01-08T11:03:48.044Z,1.77
2019-01-08T11:06:14.491Z,1.80
2019-01-08T11:08:41.020Z,2.00
2019-01-08T11:11:07.816Z,2.37
2019-01-08T11:13:34.215Z,2.30
2019-01-08T11:16:00.641Z,2.20
2019-01-08T11:18:27.165Z,1.90
2019-01-08T11:20:54.220Z,1.97
2019-01-08T11:23:21.048Z,1.90
2019-01-08T11:25:47.452Z,2.33
2019-01-08T11:28:14.013Z,2.00
2019-01-08T11:30:40.893Z,2.33
2019-01-08T11:33:07.407Z,1.90
2019-01-08T11:35:42.044Z,2.30
2019-01-08T11:38:02.267Z,1.70
2019-01-08T11:40:28.874Z,2.67
2019-01-08T11:42:55.341Z,2.07
2019-01-08T11:45:21.860Z,2.13
2019-01-08T11:47:48.307Z,1.93
2019-01-08T11:50:15.136Z,1.63
2019-01-08T11:52:41.696Z,2.37
2019-01-08T11:55:08.200Z,2.57
2019-01-08T11:57:34.731Z,3.00
2019-01-08T12:00:01.571Z,2.17
2019-01-08T12:02:28.194Z,2.03
2019-01-08T12:04:55.914Z,2.20
2019-01-08T12:07:30.846Z,2.00
2019-01-08T12:09:52.648Z,2.00
2019-01-08T12:12:20.293Z,2.33
2019-01-08T12:14:47.071Z,2.43
2019-01-08T12:17:13.635Z,2.20
2019-01-08T12:19:40.619Z,2.43
2019-01-08T12:22:07.386Z,1.47
2019-01-08T12:24:33.920Z,2.30
2019-01-08T12:27:00.535Z,1.60
2019-01-08T12:29:27.227Z,1.10
2019-01-08T12:31:55.846Z,1.60
2019-01-08T12:34:22.517Z,1.80
2019-01-08T12:36:49.073Z,2.67
2019-01-08T12:39:15.837Z,2.00
2019-01-08T12:41:42.900Z,2.00
2019-01-08T12:44:09.693Z,1.83
2019-01-08T12:46:36.161Z,1.80
2019-01-08T12:49:02.673Z,1.60
2019-01-08T12:51:29.434Z,2.53
2019-01-08T12:53:55.969Z,2.33
2019-01-08T12:56:22.398Z,2.00
2019-01-08T12:58:49.026Z,2.00
2019-01-08T13:01:16.407Z,2.33
2019-01-08T13:03:42.947Z,2.20
2019-01-08T13:06:09.480Z,1.77
2019-01-08T13:08:36.025Z,1.73
2019-01-08T13:11:02.657Z,1.87
2019-01-08T13:13:29.195Z,2.40
2019-01-08T13:15:55.699Z,2.23
2019-01-08T13:18:22.232Z,2.13
2019-01-08T13:20:48.678Z,1.80
2019-01-08T13:23:15.273Z,1.70
2019-01-08T13:25:44.122Z,1.80
2019-01-08T13:28:10.889Z,1.77
2019-01-08T13:30:48.905Z,2.03
2019-01-08T13:33:16.716Z,2.27
2019-01-08T13:35:43.532Z,1.83
2019-01-08T13:38:11.056Z,2.30
2019-01-08T13:40:37.835Z,2.00
2019-01-08T13:43:04.373Z,2.30
2019-01-08T13:45:30.996Z,3.13
2019-01-08T13:47:57.537Z,4.27
2019-01-08T13:50:24.328Z,2.27
2019-01-08T13:52:51.015Z,1.70
2019-01-08T13:55:17.484Z,1.90
2019-01-08T13:57:44.067Z,2.03
2019-01-08T14:00:10.879Z,2.33
2019-01-08T14:02:37.597Z,2.10
2019-01-08T14:05:04.669Z,2.67
2019-01-08T14:07:31.423Z,2.00
2019-01-08T14:09:57.936Z,1.97
2019-01-08T14:12:24.506Z,2.20
2019-01-08T14:14:51.024Z,1.83
2019-01-08T14:17:17.537Z,1.90
2019-01-08T14:19:44.050Z,2.00
2019-01-08T14:22:10.671Z,2.37
2019-01-08T14:24:37.228Z,2.00
2019-01-08T14:27:11.562Z,1.60
2019-01-08T14:29:31.992Z,1.93
2019-01-08T14:31:59.216Z,1.57
2019-01-08T14:34:25.752Z,1.90
2019-01-08T14:36:52.292Z,1.90
2019-01-08T14:39:19.157Z,1.63
2019-01-08T14:41:45.665Z,1.87
2019-01-08T14:44:12.097Z,2.37
2019-01-08T14:46:38.680Z,3.27
2019-01-08T14:49:05.472Z,1.87
2019-01-08T14:51:32.295Z,2.43
2019-01-08T14:53:59.108Z,3.83
2019-01-08T14:56:25.664Z,2.47
2019-01-08T14:58:52.326Z,3.10
2019-01-08T15:01:19.289Z,2.50
2019-01-08T15:03:46.107Z,1.97
2019-01-08T15:06:12.892Z,2.27
2019-01-08T15:08:39.629Z,2.93
2019-01-08T15:11:06.071Z,2.20
2019-01-08T15:13:33.612Z,2.97
2019-01-08T15:16:00.139Z,2.70
2019-01-08T15:18:27.660Z,2.13
2019-01-08T15:20:54.251Z,1.83
2019-01-08T15:23:21.081Z,1.77
2019-01-08T15:25:47.482Z,2.00
2019-01-08T15:28:14.031Z,2.07
2019-01-08T15:30:40.854Z,2.43
2019-01-08T15:33:07.372Z,3.03
2019-01-08T15:35:33.844Z,2.53
2019-01-08T15:38:01.617Z,2.43
2019-01-08T15:40:28.167Z,3.47
2019-01-08T15:42:54.723Z,4.10
2019-01-08T15:45:21.624Z,3.03
2019-01-08T15:47:48.068Z,2.60
2019-01-08T15:50:14.872Z,2.67
2019-01-08T15:52:42.387Z,2.27
2019-01-08T15:55:09.296Z,2.40
2019-01-08T15:57:36.057Z,3.37
2019-01-08T16:00:06.312Z,2.27
2019-01-08T16:02:33.378Z,2.40
2019-01-08T16:05:07.583Z,2.27
2019-01-08T16:07:36.295Z,2.30
2019-01-08T16:10:05.161Z,2.60
2019-01-08T16:12:32.268Z,3.13
2019-01-08T16:15:02.024Z,2.87
2019-01-08T16:17:35.757Z,4.33
2019-01-08T16:20:04.235Z,2.87
2019-01-08T16:22:32.883Z,2.67
2019-01-08T16:24:59.461Z,2.47
2019-01-08T16:27:26.223Z,2.23
2019-01-08T16:29:56.824Z,2.20
2019-01-08T16:32:26.245Z,2.50
2019-01-08T16:34:52.916Z,2.47
2019-01-08T16:37:24.342Z,2.47
2019-01-08T16:39:54.617Z,2.50
2019-01-08T16:42:27.143Z,3.10
2019-01-08T16:44:56.030Z,2.67
2019-01-08T16:47:22.737Z,2.33
2019-01-08T16:49:49.364Z,2.83
2019-01-08T16:52:16.560Z,2.80
2019-01-08T16:54:43.207Z,3.30
2019-01-08T16:57:09.839Z,2.70
2019-01-08T16:59:36.761Z,2.43
2019-01-08T17:02:03.676Z,2.90
2019-01-08T17:04:30.230Z,3.03
2019-01-08T17:06:58.266Z,2.47
2019-01-08T17:09:26.676Z,3.00
2019-01-08T17:11:55.208Z,2.93
2019-01-08T17:14:24.921Z,2.93
2019-01-08T17:16:51.687Z,2.70
2019-01-08T17:19:21.478Z,3.30
2019-01-08T17:21:48.873Z,3.00
2019-01-08T17:24:17.004Z,2.83
2019-01-08T17:26:43.702Z,3.03
2019-01-08T17:29:10.512Z,3.23
2019-01-08T17:31:39.322Z,3.43
2019-01-08T17:34:06.033Z,2.90
2019-01-08T17:36:32.881Z,3.27
2019-01-08T17:38:59.799Z,2.93
2019-01-08T17:41:26.313Z,2.83
2019-01-08T17:43:53.390Z,3.47
2019-01-08T17:46:21.320Z,3.90
2019-01-08T17:48:54.031Z,2.83
2019-01-08T17:51:27.096Z,3.43
2019-01-08T17:53:57.275Z,2.87
2019-01-08T17:56:26.242Z,2.53
2019-01-08T17:58:59.567Z,2.90
2019-01-08T18:01:26.155Z,2.27
2019-01-08T18:03:53.446Z,2.00
2019-01-08T18:06:21.941Z,2.73
2019-01-08T18:08:49.953Z,2.50
2019-01-08T18:11:17.179Z,2.07
2019-01-08T18:13:43.771Z,2.10
2019-01-08T18:16:10.745Z,2.63
2019-01-08T18:18:39.184Z,2.60
2019-01-08T18:21:05.763Z,3.63
2019-01-08T18:23:34.728Z,2.33
2019-01-08T18:26:01.154Z,2.63
2019-01-08T18:28:30.516Z,3.00
2019-01-08T18:30:56.952Z,2.47
2019-01-08T18:33:23.876Z,2.43
2019-01-08T18:35:51.708Z,2.40
2019-01-08T18:38:20.411Z,2.63
2019-01-08T18:40:46.947Z,2.30
2019-01-08T18:43:14.189Z,1.50
2019-01-08T18:45:41.364Z,2.17
2019-01-08T18:48:08.181Z,1.80
2019-01-08T18:50:34.782Z,1.40
2019-01-08T18:53:01.423Z,1.60
2019-01-08T18:55:30.130Z,1.80
2019-01-08T18:57:57.959Z,1.40
2019-01-08T19:00:25.622Z,1.40
2019-01-08T19:02:52.357Z,1.70
2019-01-08T19:05:20.847Z,2.03
2019-01-08T19:07:50.628Z,2.83
2019-01-08T19:10:19.191Z,3.63
2019-01-08T19:12:48.577Z,5.03
2019-01-08T19:15:15.330Z,2.80
2019-01-08T19:17:43.893Z,3.03
2019-01-08T19:20:10.692Z,2.80
2019-01-08T19:22:37.254Z,2.37
2019-01-08T19:25:05.984Z,2.30
2019-01-08T19:27:34.590Z,2.00
2019-01-08T19:30:04.125Z,3.17
2019-01-08T19:32:32.681Z,2.50
2019-01-08T19:34:59.767Z,2.90
2019-01-08T19:37:26.343Z,2.90
2019-01-08T19:39:55.015Z,2.10
2019-01-08T19:42:21.737Z,2.60
2019-01-08T19:44:48.493Z,1.90
2019-01-08T19:47:15.149Z,1.90
2019-01-08T19:49:42.736Z,1.70
2019-01-08T19:52:09.685Z,2.07
2019-01-08T19:54:36.207Z,1.63
2019-01-08T19:57:02.784Z,1.87
2019-01-08T19:59:29.778Z,1.80
2019-01-08T20:01:56.353Z,3.00
2019-01-08T20:04:22.888Z,2.73
2019-01-08T20:06:49.503Z,2.10
2019-01-08T20:09:24.905Z,2.53
2019-01-08T20:11:44.670Z,2.30
2019-01-08T20:14:11.246Z,2.30
2019-01-08T20:16:38.753Z,1.80
2019-01-08T20:19:05.388Z,2.73
2019-01-08T20:21:32.141Z,1.70
2019-01-08T20:24:06.320Z,2.50
2019-01-08T20:26:27.231Z,2.50
2019-01-08T20:28:53.652Z,2.13
2019-01-08T20:31:20.195Z,2.50
2019-01-08T20:33:46.647Z,2.30
2019-01-08T20:36:13.357Z,2.47
2019-01-08T20:38:40.216Z,2.67
2019-01-08T20:41:06.746Z,2.07
2019-01-08T20:43:33.298Z,1.93
2019-01-08T20:46:00.066Z,2.80
2019-01-08T20:48:27.480Z,1.83
2019-01-08T20:50:54.988Z,1.90
2019-01-08T20:53:21.761Z,1.73
2019-01-08T20:55:48.282Z,2.20
2019-01-08T20:58:15.109Z,2.40
2019-01-08T21:00:41.763Z,2.20
2019-01-08T21:03:08.522Z,1.97
2019-01-08T21:05:35.060Z,2.60
2019-01-08T21:08:01.596Z,2.67
2019-01-08T21:10:28.154Z,2.50
2019-01-08T21:12:54.759Z,2.53
2019-01-08T21:15:21.267Z,2.50
2019-01-08T21:17:47.791Z,2.60
2019-01-08T21:20:14.604Z,3.10
2019-01-08T21:22:41.475Z,2.60
2019-01-08T21:25:09.364Z,2.83
2019-01-08T21:27:35.962Z,2.27
2019-01-08T21:30:05.498Z,2.20
2019-01-08T21:32:32.016Z,2.13
2019-01-08T21:34:59.845Z,2.33
2019-01-08T21:37:26.369Z,2.40
2019-01-08T21:39:52.901Z,2.50
2019-01-08T21:42:19.687Z,2.10
2019-01-08T21:44:46.231Z,1.97
2019-01-08T21:47:12.754Z,2.37
2019-01-08T21:49:42.180Z,2.57
2019-01-08T21:52:08.593Z,1.97
2019-01-08T21:54:36.048Z,2.07
2019-01-08T21:57:02.528Z,2.07
2019-01-08T21:59:29.115Z,2.00
2019-01-08T22:01:55.690Z,1.87
2019-01-08T22:04:22.236Z,1.80
2019-01-08T22:06:48.671Z,2.13
2019-01-08T22:09:15.272Z,1.80
2019-01-08T22:11:43.213Z,2.00
2019-01-08T22:14:09.870Z,2.40
2019-01-08T22:16:36.398Z,2.03
2019-01-08T22:19:02.916Z,2.30
2019-01-08T22:21:29.614Z,2.00
2019-01-08T22:23:56.390Z,2.20
2019-01-08T22:26:23.317Z,1.90
2019-01-08T22:28:50.008Z,2.23
2019-01-08T22:31:16.707Z,2.10
2019-01-08T22:33:43.128Z,1.87
2019-01-08T22:36:10.106Z,2.37
2019-01-08T22:38:36.737Z,2.73
2019-01-08T22:41:04.382Z,1.80
2019-01-08T22:43:30.986Z,2.40
2019-01-08T22:45:57.487Z,1.83
2019-01-08T22:48:24.032Z,2.33
2019-01-08T22:50:50.574Z,2.07
2019-01-08T22:53:17.071Z,2.37
2019-01-08T22:55:43.704Z,1.97
2019-01-08T22:58:10.338Z,1.53
2019-01-08T23:00:56.170Z,2.00
2019-01-08T23:03:22.809Z,2.07
2019-01-08T23:05:51.520Z,1.73
2019-01-08T23:08:18.100Z,1.63
2019-01-08T23:10:45.420Z,2.00
2019-01-08T23:13:12.272Z,1.70
2019-01-08T23:15:38.835Z,2.07
2019-01-08T23:18:05.526Z,1.87
2019-01-08T23:20:33.111Z,1.70
2019-01-08T23:22:59.621Z,2.43
2019-01-08T23:25:26.585Z,1.73
2019-01-08T23:27:55.383Z,2.23
2019-01-08T23:30:22.076Z,1.80
2019-01-08T23:32:48.597Z,2.03
2019-01-08T23:35:19.640Z,1.57
2019-01-08T23:37:44.621Z,1.60
2019-01-08T23:40:11.335Z,1.77
2019-01-08T23:42:38.155Z,1.70
2019-01-08T23:45:07.027Z,1.83
2019-01-08T23:47:33.543Z,1.70
2019-01-08T23:50:00.182Z,2.00
2019-01-08T23:52:30.521Z,1.40
2019-01-08T23:54:57.540Z,1.50
2019-01-08T23:57:24.930Z,1.60
2019-01-08T23:59:51.424Z,1.83
